sensor_id;sensor_type;location;lat;lon;timestamp;P1;durP1;ratioP1;P2;durP2;ratioP2
11173;SDS011;5643;50.856;12.088;2023-08-06T00:01:56;2.00;;;1.90;;
11173;SDS011;5643;50.856;12.088;2023-08-06T00:04:27;2.80;;;2.23;;
11173;SDS011;5643;50.856;12.088;2023-08-06T00:07:00;2.40;;;2.30;;
11173;SDS011;5643;50.856;12.088;2023-08-06T00:09:31;2.40;;;2.03;;
11173;SDS011;5643;50.856;12.088;2023-08-06T00:12:00;2.30;;;2.03;;
11173;SDS011;5643;50.856;12.088;2023-08-06T00:14:32;2.30;;;2.20;;
11173;SDS011;5643;50.856;12.088;2023-08-06T00:17:05;2.30;;;2.10;;
11173;SDS011;5643;50.856;12.088;2023-08-06T00:19:37;2.67;;;2.47;;
11173;SDS011;5643;50.856;12.088;2023-08-06T00:22:07;2.50;;;2.10;;
11173;SDS011;5643;50.856;12.088;2023-08-06T00:24:40;2.30;;;2.20;;
11173;SDS011;5643;50.856;12.088;2023-08-06T00:27:08;2.50;;;2.30;;
11173;SDS011;5643;50.856;12.088;2023-08-06T00:29:41;2.00;;;1.90;;
11173;SDS011;5643;50.856;12.088;2023-08-06T00:32:15;1.80;;;1.70;;
11173;SDS011;5643;50.856;12.088;2023-08-06T00:34:49;1.73;;;1.60;;
11173;SDS011;5643;50.856;12.088;2023-08-06T00:37:19;1.57;;;1.47;;
11173;SDS011;5643;50.856;12.088;2023-08-06T00:39:51;1.03;;;1.03;;
11173;SDS011;5643;50.856;12.088;2023-08-06T00:42:21;1.00;;;1.00;;
11173;SDS011;5643;50.856;12.088;2023-08-06T00:44:52;1.37;;;0.90;;
11173;SDS011;5643;50.856;12.088;2023-08-06T00:47:23;1.20;;;1.10;;
11173;SDS011;5643;50.856;12.088;2023-08-06T00:49:56;0.90;;;0.90;;
11173;SDS011;5643;50.856;12.088;2023-08-06T00:52:29;0.80;;;0.80;;
11173;SDS011;5643;50.856;12.088;2023-08-06T00:54:58;1.20;;;1.10;;
11173;SDS011;5643;50.856;12.088;2023-08-06T00:57:27;0.90;;;0.83;;
11173;SDS011;5643;50.856;12.088;2023-08-06T00:59:58;0.80;;;0.80;;
11173;SDS011;5643;50.856;12.088;2023-08-06T01:02:28;0.60;;;0.60;;
11173;SDS011;5643;50.856;12.088;2023-08-06T01:05:02;0.73;;;0.73;;
11173;SDS011;5643;50.856;12.088;2023-08-06T01:07:37;0.50;;;0.50;;
11173;SDS011;5643;50.856;12.088;2023-08-06T01:10:19;0.60;;;0.60;;
11173;SDS011;5643;50.856;12.088;2023-08-06T01:12:54;0.40;;;0.40;;
11173;SDS011;5643;50.856;12.088;2023-08-06T01:15:29;0.67;;;0.67;;
11173;SDS011;5643;50.856;12.088;2023-08-06T01:17:59;0.50;;;0.50;;
11173;SDS011;5643;50.856;12.088;2023-08-06T01:20:35;0.60;;;0.60;;
11173;SDS011;5643;50.856;12.088;2023-08-06T01:23:08;0.50;;;0.50;;
11173;SDS011;5643;50.856;12.088;2023-08-06T01:25:46;0.60;;;0.60;;
11173;SDS011;5643;50.856;12.088;2023-08-06T01:28:26;0.40;;;0.40;;
11173;SDS011;5643;50.856;12.088;2023-08-06T01:30:59;0.50;;;0.50;;
11173;SDS011;5643;50.856;12.088;2023-08-06T01:33:30;0.50;;;0.50;;
11173;SDS011;5643;50.856;12.088;2023-08-06T01:36:06;0.70;;;0.70;;
11173;SDS011;5643;50.856;12.088;2023-08-06T01:38:36;0.60;;;0.60;;
11173;SDS011;5643;50.856;12.088;2023-08-06T01:41:06;0.70;;;0.70;;
11173;SDS011;5643;50.856;12.088;2023-08-06T01:43:37;0.70;;;0.70;;
11173;SDS011;5643;50.856;12.088;2023-08-06T01:46:07;0.50;;;0.50;;
11173;SDS011;5643;50.856;12.088;2023-08-06T01:48:38;0.50;;;0.50;;
11173;SDS011;5643;50.856;12.088;2023-08-06T01:51:10;0.70;;;0.63;;
11173;SDS011;5643;50.856;12.088;2023-08-06T01:53:39;0.60;;;0.60;;
11173;SDS011;5643;50.856;12.088;2023-08-06T01:56:11;0.50;;;0.50;;
11173;SDS011;5643;50.856;12.088;2023-08-06T01:58:39;0.47;;;0.47;;
11173;SDS011;5643;50.856;12.088;2023-08-06T02:01:10;1.10;;;0.80;;
11173;SDS011;5643;50.856;12.088;2023-08-06T02:03:41;0.63;;;0.63;;
11173;SDS011;5643;50.856;12.088;2023-08-06T02:06:14;0.63;;;0.63;;
11173;SDS011;5643;50.856;12.088;2023-08-06T02:08:49;0.60;;;0.60;;
11173;SDS011;5643;50.856;12.088;2023-08-06T02:11:20;0.60;;;0.60;;
11173;SDS011;5643;50.856;12.088;2023-08-06T02:13:51;0.80;;;0.53;;
11173;SDS011;5643;50.856;12.088;2023-08-06T02:16:21;0.60;;;0.60;;
11173;SDS011;5643;50.856;12.088;2023-08-06T02:18:52;0.50;;;0.50;;
11173;SDS011;5643;50.856;12.088;2023-08-06T02:21:23;0.67;;;0.67;;
11173;SDS011;5643;50.856;12.088;2023-08-06T02:23:52;0.77;;;0.60;;
11173;SDS011;5643;50.856;12.088;2023-08-06T02:26:21;0.60;;;0.60;;
11173;SDS011;5643;50.856;12.088;2023-08-06T02:28:54;0.67;;;0.67;;
11173;SDS011;5643;50.856;12.088;2023-08-06T02:31:24;0.70;;;0.70;;
11173;SDS011;5643;50.856;12.088;2023-08-06T02:33:58;0.50;;;0.50;;
11173;SDS011;5643;50.856;12.088;2023-08-06T02:36:31;0.47;;;0.47;;
11173;SDS011;5643;50.856;12.088;2023-08-06T02:39:00;0.60;;;0.60;;
11173;SDS011;5643;50.856;12.088;2023-08-06T02:41:29;0.50;;;0.50;;
11173;SDS011;5643;50.856;12.088;2023-08-06T02:44:02;0.53;;;0.53;;
11173;SDS011;5643;50.856;12.088;2023-08-06T02:46:34;0.57;;;0.57;;
11173;SDS011;5643;50.856;12.088;2023-08-06T02:49:06;0.73;;;0.60;;
11173;SDS011;5643;50.856;12.088;2023-08-06T02:51:45;0.70;;;0.67;;
11173;SDS011;5643;50.856;12.088;2023-08-06T02:54:14;0.70;;;0.70;;
11173;SDS011;5643;50.856;12.088;2023-08-06T02:56:46;0.73;;;0.73;;
11173;SDS011;5643;50.856;12.088;2023-08-06T02:59:16;0.93;;;0.60;;
11173;SDS011;5643;50.856;12.088;2023-08-06T03:01:45;0.60;;;0.60;;
11173;SDS011;5643;50.856;12.088;2023-08-06T03:04:17;0.50;;;0.50;;
11173;SDS011;5643;50.856;12.088;2023-08-06T03:06:50;0.63;;;0.63;;
11173;SDS011;5643;50.856;12.088;2023-08-06T03:09:19;1.30;;;0.63;;
11173;SDS011;5643;50.856;12.088;2023-08-06T03:11:51;0.60;;;0.60;;
11173;SDS011;5643;50.856;12.088;2023-08-06T03:14:21;0.70;;;0.70;;
11173;SDS011;5643;50.856;12.088;2023-08-06T03:16:52;0.63;;;0.63;;
11173;SDS011;5643;50.856;12.088;2023-08-06T03:19:21;0.70;;;0.70;;
11173;SDS011;5643;50.856;12.088;2023-08-06T03:21:56;0.60;;;0.60;;
11173;SDS011;5643;50.856;12.088;2023-08-06T03:24:27;0.67;;;0.67;;
11173;SDS011;5643;50.856;12.088;2023-08-06T03:26:59;0.70;;;0.70;;
11173;SDS011;5643;50.856;12.088;2023-08-06T03:29:30;0.60;;;0.60;;
11173;SDS011;5643;50.856;12.088;2023-08-06T03:32:01;0.60;;;0.60;;
11173;SDS011;5643;50.856;12.088;2023-08-06T03:34:32;0.63;;;0.63;;
11173;SDS011;5643;50.856;12.088;2023-08-06T03:37:03;1.00;;;0.77;;
11173;SDS011;5643;50.856;12.088;2023-08-06T03:39:37;0.50;;;0.50;;
11173;SDS011;5643;50.856;12.088;2023-08-06T03:42:08;0.50;;;0.50;;
11173;SDS011;5643;50.856;12.088;2023-08-06T03:44:38;0.60;;;0.60;;
11173;SDS011;5643;50.856;12.088;2023-08-06T03:47:07;0.60;;;0.60;;
11173;SDS011;5643;50.856;12.088;2023-08-06T03:49:37;0.70;;;0.60;;
11173;SDS011;5643;50.856;12.088;2023-08-06T03:52:12;0.53;;;0.53;;
11173;SDS011;5643;50.856;12.088;2023-08-06T03:54:44;0.70;;;0.70;;
11173;SDS011;5643;50.856;12.088;2023-08-06T03:57:16;0.60;;;0.60;;
11173;SDS011;5643;50.856;12.088;2023-08-06T03:59:50;0.73;;;0.50;;
11173;SDS011;5643;50.856;12.088;2023-08-06T04:02:24;0.50;;;0.50;;
11173;SDS011;5643;50.856;12.088;2023-08-06T04:04:54;0.53;;;0.53;;
11173;SDS011;5643;50.856;12.088;2023-08-06T04:07:30;0.60;;;0.60;;
11173;SDS011;5643;50.856;12.088;2023-08-06T04:10:04;0.50;;;0.50;;
11173;SDS011;5643;50.856;12.088;2023-08-06T04:12:33;0.60;;;0.60;;
11173;SDS011;5643;50.856;12.088;2023-08-06T04:15:08;0.50;;;0.50;;
11173;SDS011;5643;50.856;12.088;2023-08-06T04:17:38;0.53;;;0.53;;
11173;SDS011;5643;50.856;12.088;2023-08-06T04:20:11;0.70;;;0.70;;
11173;SDS011;5643;50.856;12.088;2023-08-06T04:22:43;0.77;;;0.77;;
11173;SDS011;5643;50.856;12.088;2023-08-06T04:25:16;0.70;;;0.70;;
11173;SDS011;5643;50.856;12.088;2023-08-06T04:27:50;0.70;;;0.70;;
11173;SDS011;5643;50.856;12.088;2023-08-06T04:30:22;0.60;;;0.60;;
11173;SDS011;5643;50.856;12.088;2023-08-06T04:32:53;0.63;;;0.63;;
11173;SDS011;5643;50.856;12.088;2023-08-06T04:35:27;0.60;;;0.60;;
11173;SDS011;5643;50.856;12.088;2023-08-06T04:38:02;0.70;;;0.70;;
11173;SDS011;5643;50.856;12.088;2023-08-06T04:40:30;0.60;;;0.60;;
11173;SDS011;5643;50.856;12.088;2023-08-06T04:43:01;0.70;;;0.70;;
11173;SDS011;5643;50.856;12.088;2023-08-06T04:45:31;0.80;;;0.80;;
11173;SDS011;5643;50.856;12.088;2023-08-06T04:47:59;0.70;;;0.70;;
11173;SDS011;5643;50.856;12.088;2023-08-06T04:50:29;0.80;;;0.80;;
11173;SDS011;5643;50.856;12.088;2023-08-06T04:52:59;0.80;;;0.80;;
11173;SDS011;5643;50.856;12.088;2023-08-06T04:55:35;0.60;;;0.60;;
11173;SDS011;5643;50.856;12.088;2023-08-06T04:58:10;0.60;;;0.60;;
11173;SDS011;5643;50.856;12.088;2023-08-06T05:00:39;0.57;;;0.57;;
11173;SDS011;5643;50.856;12.088;2023-08-06T05:03:08;0.67;;;0.67;;
11173;SDS011;5643;50.856;12.088;2023-08-06T05:05:40;0.50;;;0.50;;
11173;SDS011;5643;50.856;12.088;2023-08-06T05:08:14;0.53;;;0.50;;
11173;SDS011;5643;50.856;12.088;2023-08-06T05:10:46;0.53;;;0.53;;
11173;SDS011;5643;50.856;12.088;2023-08-06T05:13:14;0.60;;;0.60;;
11173;SDS011;5643;50.856;12.088;2023-08-06T05:15:44;0.60;;;0.60;;
11173;SDS011;5643;50.856;12.088;2023-08-06T05:18:16;0.50;;;0.50;;
11173;SDS011;5643;50.856;12.088;2023-08-06T05:20:48;0.50;;;0.50;;
11173;SDS011;5643;50.856;12.088;2023-08-06T05:23:18;0.60;;;0.60;;
11173;SDS011;5643;50.856;12.088;2023-08-06T05:25:49;0.73;;;0.70;;
11173;SDS011;5643;50.856;12.088;2023-08-06T05:28:17;0.60;;;0.60;;
11173;SDS011;5643;50.856;12.088;2023-08-06T05:30:48;0.60;;;0.60;;
11173;SDS011;5643;50.856;12.088;2023-08-06T05:33:25;0.60;;;0.60;;
11173;SDS011;5643;50.856;12.088;2023-08-06T05:36:00;0.63;;;0.63;;
11173;SDS011;5643;50.856;12.088;2023-08-06T05:38:31;0.60;;;0.60;;
11173;SDS011;5643;50.856;12.088;2023-08-06T05:41:07;0.60;;;0.60;;
11173;SDS011;5643;50.856;12.088;2023-08-06T05:43:41;0.63;;;0.63;;
11173;SDS011;5643;50.856;12.088;2023-08-06T05:46:16;0.70;;;0.70;;
11173;SDS011;5643;50.856;12.088;2023-08-06T05:48:48;0.70;;;0.70;;
11173;SDS011;5643;50.856;12.088;2023-08-06T05:51:19;1.00;;;0.50;;
11173;SDS011;5643;50.856;12.088;2023-08-06T05:53:52;0.60;;;0.60;;
11173;SDS011;5643;50.856;12.088;2023-08-06T05:56:25;0.70;;;0.70;;
11173;SDS011;5643;50.856;12.088;2023-08-06T05:59:00;0.67;;;0.67;;
11173;SDS011;5643;50.856;12.088;2023-08-06T06:01:34;0.50;;;0.50;;
11173;SDS011;5643;50.856;12.088;2023-08-06T06:04:07;0.60;;;0.60;;
11173;SDS011;5643;50.856;12.088;2023-08-06T06:06:36;0.50;;;0.50;;
11173;SDS011;5643;50.856;12.088;2023-08-06T06:09:12;0.60;;;0.60;;
11173;SDS011;5643;50.856;12.088;2023-08-06T06:11:46;0.70;;;0.70;;
11173;SDS011;5643;50.856;12.088;2023-08-06T06:14:21;0.70;;;0.70;;
11173;SDS011;5643;50.856;12.088;2023-08-06T06:16:58;0.83;;;0.83;;
11173;SDS011;5643;50.856;12.088;2023-08-06T06:19:29;0.87;;;0.80;;
11173;SDS011;5643;50.856;12.088;2023-08-06T06:21:58;1.00;;;0.90;;
11173;SDS011;5643;50.856;12.088;2023-08-06T06:24:35;0.80;;;0.80;;
11173;SDS011;5643;50.856;12.088;2023-08-06T06:27:14;0.70;;;0.70;;
11173;SDS011;5643;50.856;12.088;2023-08-06T06:29:43;0.93;;;0.90;;
11173;SDS011;5643;50.856;12.088;2023-08-06T06:32:14;0.80;;;0.80;;
11173;SDS011;5643;50.856;12.088;2023-08-06T06:34:44;0.70;;;0.70;;
11173;SDS011;5643;50.856;12.088;2023-08-06T06:37:17;0.70;;;0.70;;
11173;SDS011;5643;50.856;12.088;2023-08-06T06:39:47;0.80;;;0.80;;
11173;SDS011;5643;50.856;12.088;2023-08-06T06:42:19;1.17;;;0.80;;
11173;SDS011;5643;50.856;12.088;2023-08-06T06:44:54;0.83;;;0.80;;
11173;SDS011;5643;50.856;12.088;2023-08-06T06:47:27;0.80;;;0.80;;
11173;SDS011;5643;50.856;12.088;2023-08-06T06:49:58;0.70;;;0.70;;
11173;SDS011;5643;50.856;12.088;2023-08-06T06:52:36;0.80;;;0.80;;
11173;SDS011;5643;50.856;12.088;2023-08-06T06:55:09;0.77;;;0.77;;
11173;SDS011;5643;50.856;12.088;2023-08-06T06:57:41;1.00;;;1.00;;
11173;SDS011;5643;50.856;12.088;2023-08-06T07:00:18;1.00;;;1.00;;
11173;SDS011;5643;50.856;12.088;2023-08-06T07:02:49;0.80;;;0.80;;
11173;SDS011;5643;50.856;12.088;2023-08-06T07:05:23;0.80;;;0.80;;
11173;SDS011;5643;50.856;12.088;2023-08-06T07:07:54;0.90;;;0.90;;
11173;SDS011;5643;50.856;12.088;2023-08-06T07:10:28;0.83;;;0.83;;
11173;SDS011;5643;50.856;12.088;2023-08-06T07:13:01;0.80;;;0.80;;
11173;SDS011;5643;50.856;12.088;2023-08-06T07:15:38;0.80;;;0.80;;
11173;SDS011;5643;50.856;12.088;2023-08-06T07:18:12;0.90;;;0.90;;
11173;SDS011;5643;50.856;12.088;2023-08-06T07:20:40;0.80;;;0.80;;
11173;SDS011;5643;50.856;12.088;2023-08-06T07:23:08;0.70;;;0.70;;
11173;SDS011;5643;50.856;12.088;2023-08-06T07:25:41;0.77;;;0.70;;
11173;SDS011;5643;50.856;12.088;2023-08-06T07:28:19;0.90;;;0.90;;
11173;SDS011;5643;50.856;12.088;2023-08-06T07:30:53;0.80;;;0.80;;
11173;SDS011;5643;50.856;12.088;2023-08-06T07:33:29;0.83;;;0.83;;
11173;SDS011;5643;50.856;12.088;2023-08-06T07:36:09;1.10;;;1.10;;
11173;SDS011;5643;50.856;12.088;2023-08-06T07:38:48;0.90;;;0.90;;
11173;SDS011;5643;50.856;12.088;2023-08-06T07:41:24;0.90;;;0.90;;
11173;SDS011;5643;50.856;12.088;2023-08-06T07:44:00;0.90;;;0.90;;
11173;SDS011;5643;50.856;12.088;2023-08-06T07:46:38;0.90;;;0.90;;
11173;SDS011;5643;50.856;12.088;2023-08-06T07:49:11;1.03;;;1.03;;
11173;SDS011;5643;50.856;12.088;2023-08-06T07:51:43;0.90;;;0.90;;
11173;SDS011;5643;50.856;12.088;2023-08-06T07:54:14;1.00;;;1.00;;
11173;SDS011;5643;50.856;12.088;2023-08-06T07:56:44;1.00;;;1.00;;
11173;SDS011;5643;50.856;12.088;2023-08-06T07:59:17;1.10;;;1.00;;
11173;SDS011;5643;50.856;12.088;2023-08-06T08:01:49;0.80;;;0.80;;
11173;SDS011;5643;50.856;12.088;2023-08-06T08:04:27;0.90;;;0.90;;
11173;SDS011;5643;50.856;12.088;2023-08-06T08:06:56;0.80;;;0.80;;
11173;SDS011;5643;50.856;12.088;2023-08-06T08:09:25;0.80;;;0.80;;
11173;SDS011;5643;50.856;12.088;2023-08-06T08:12:07;0.90;;;0.90;;
11173;SDS011;5643;50.856;12.088;2023-08-06T08:14:44;1.10;;;1.00;;
11173;SDS011;5643;50.856;12.088;2023-08-06T08:17:13;0.70;;;0.70;;
11173;SDS011;5643;50.856;12.088;2023-08-06T08:19:47;0.90;;;0.90;;
11173;SDS011;5643;50.856;12.088;2023-08-06T08:22:20;0.60;;;0.60;;
11173;SDS011;5643;50.856;12.088;2023-08-06T08:24:51;0.77;;;0.77;;
11173;SDS011;5643;50.856;12.088;2023-08-06T08:27:28;0.90;;;0.90;;
11173;SDS011;5643;50.856;12.088;2023-08-06T08:30:06;1.00;;;0.90;;
11173;SDS011;5643;50.856;12.088;2023-08-06T08:32:35;0.80;;;0.80;;
11173;SDS011;5643;50.856;12.088;2023-08-06T08:35:07;0.70;;;0.70;;
11173;SDS011;5643;50.856;12.088;2023-08-06T08:37:36;0.60;;;0.60;;
11173;SDS011;5643;50.856;12.088;2023-08-06T08:40:08;0.80;;;0.80;;
11173;SDS011;5643;50.856;12.088;2023-08-06T08:42:43;0.90;;;0.83;;
11173;SDS011;5643;50.856;12.088;2023-08-06T08:45:18;0.60;;;0.60;;
11173;SDS011;5643;50.856;12.088;2023-08-06T08:47:48;0.70;;;0.70;;
11173;SDS011;5643;50.856;12.088;2023-08-06T08:50:21;0.60;;;0.60;;
11173;SDS011;5643;50.856;12.088;2023-08-06T08:52:53;0.83;;;0.83;;
11173;SDS011;5643;50.856;12.088;2023-08-06T08:55:26;0.60;;;0.60;;
11173;SDS011;5643;50.856;12.088;2023-08-06T08:57:59;0.70;;;0.70;;
11173;SDS011;5643;50.856;12.088;2023-08-06T09:00:37;0.70;;;0.70;;
11173;SDS011;5643;50.856;12.088;2023-08-06T09:03:11;0.80;;;0.80;;
11173;SDS011;5643;50.856;12.088;2023-08-06T09:05:44;0.90;;;0.90;;
11173;SDS011;5643;50.856;12.088;2023-08-06T09:08:23;0.87;;;0.87;;
11173;SDS011;5643;50.856;12.088;2023-08-06T09:10:56;0.70;;;0.70;;
11173;SDS011;5643;50.856;12.088;2023-08-06T09:13:34;0.80;;;0.80;;
11173;SDS011;5643;50.856;12.088;2023-08-06T09:16:11;0.50;;;0.50;;
11173;SDS011;5643;50.856;12.088;2023-08-06T09:18:42;0.70;;;0.70;;
11173;SDS011;5643;50.856;12.088;2023-08-06T09:21:13;0.60;;;0.60;;
11173;SDS011;5643;50.856;12.088;2023-08-06T09:23:44;0.63;;;0.63;;
11173;SDS011;5643;50.856;12.088;2023-08-06T09:26:14;0.80;;;0.80;;
11173;SDS011;5643;50.856;12.088;2023-08-06T09:28:46;0.70;;;0.70;;
11173;SDS011;5643;50.856;12.088;2023-08-06T09:31:17;1.00;;;0.80;;
11173;SDS011;5643;50.856;12.088;2023-08-06T09:33:59;0.70;;;0.70;;
11173;SDS011;5643;50.856;12.088;2023-08-06T09:36:30;0.83;;;0.83;;
11173;SDS011;5643;50.856;12.088;2023-08-06T09:39:00;0.67;;;0.67;;
11173;SDS011;5643;50.856;12.088;2023-08-06T09:41:37;0.90;;;0.90;;
11173;SDS011;5643;50.856;12.088;2023-08-06T09:44:14;1.00;;;0.90;;
11173;SDS011;5643;50.856;12.088;2023-08-06T09:46:50;0.80;;;0.80;;
11173;SDS011;5643;50.856;12.088;2023-08-06T09:49:21;0.90;;;0.90;;
11173;SDS011;5643;50.856;12.088;2023-08-06T09:51:51;0.80;;;0.80;;
11173;SDS011;5643;50.856;12.088;2023-08-06T09:54:29;0.82;;;0.70;;
11173;SDS011;5643;50.856;12.088;2023-08-06T09:57:01;0.60;;;0.60;;
11173;SDS011;5643;50.856;12.088;2023-08-06T09:59:39;0.80;;;0.80;;
11173;SDS011;5643;50.856;12.088;2023-08-06T10:02:13;0.75;;;0.75;;
11173;SDS011;5643;50.856;12.088;2023-08-06T10:04:53;0.80;;;0.70;;
11173;SDS011;5643;50.856;12.088;2023-08-06T10:07:25;0.82;;;0.80;;
11173;SDS011;5643;50.856;12.088;2023-08-06T10:09:55;0.77;;;0.77;;
11173;SDS011;5643;50.856;12.088;2023-08-06T10:12:27;0.70;;;0.70;;
11173;SDS011;5643;50.856;12.088;2023-08-06T10:14:59;0.70;;;0.70;;
11173;SDS011;5643;50.856;12.088;2023-08-06T10:17:39;0.68;;;0.60;;
11173;SDS011;5643;50.856;12.088;2023-08-06T10:20:17;0.98;;;0.98;;
11173;SDS011;5643;50.856;12.088;2023-08-06T10:22:59;1.00;;;1.00;;
11173;SDS011;5643;50.856;12.088;2023-08-06T10:25:31;0.70;;;0.70;;
11173;SDS011;5643;50.856;12.088;2023-08-06T10:28:06;0.70;;;0.70;;
11173;SDS011;5643;50.856;12.088;2023-08-06T10:30:41;0.60;;;0.60;;
11173;SDS011;5643;50.856;12.088;2023-08-06T10:33:14;0.60;;;0.60;;
11173;SDS011;5643;50.856;12.088;2023-08-06T10:35:43;0.88;;;0.88;;
11173;SDS011;5643;50.856;12.088;2023-08-06T10:38:13;1.02;;;1.02;;
11173;SDS011;5643;50.856;12.088;2023-08-06T10:40:48;0.70;;;0.70;;
11173;SDS011;5643;50.856;12.088;2023-08-06T10:43:27;0.60;;;0.60;;
11173;SDS011;5643;50.856;12.088;2023-08-06T10:46:01;0.70;;;0.70;;
11173;SDS011;5643;50.856;12.088;2023-08-06T10:48:45;0.65;;;0.65;;
11173;SDS011;5643;50.856;12.088;2023-08-06T10:51:15;0.90;;;0.90;;
11173;SDS011;5643;50.856;12.088;2023-08-06T10:53:50;0.70;;;0.70;;
11173;SDS011;5643;50.856;12.088;2023-08-06T10:56:24;0.90;;;0.90;;
11173;SDS011;5643;50.856;12.088;2023-08-06T10:58:59;0.98;;;0.98;;
11173;SDS011;5643;50.856;12.088;2023-08-06T11:01:38;0.90;;;0.90;;
11173;SDS011;5643;50.856;12.088;2023-08-06T11:04:15;1.20;;;1.10;;
11173;SDS011;5643;50.856;12.088;2023-08-06T11:06:51;1.00;;;1.00;;
11173;SDS011;5643;50.856;12.088;2023-08-06T11:09:21;0.88;;;0.88;;
11173;SDS011;5643;50.856;12.088;2023-08-06T11:11:49;1.00;;;0.73;;
11173;SDS011;5643;50.856;12.088;2023-08-06T11:14:21;0.80;;;0.80;;
11173;SDS011;5643;50.856;12.088;2023-08-06T11:16:50;0.80;;;0.80;;
11173;SDS011;5643;50.856;12.088;2023-08-06T11:19:30;0.70;;;0.70;;
11173;SDS011;5643;50.856;12.088;2023-08-06T11:22:05;0.77;;;0.77;;
11173;SDS011;5643;50.856;12.088;2023-08-06T11:24:47;1.02;;;0.93;;
11173;SDS011;5643;50.856;12.088;2023-08-06T11:27:19;0.70;;;0.70;;
11173;SDS011;5643;50.856;12.088;2023-08-06T11:29:54;1.05;;;0.70;;
11173;SDS011;5643;50.856;12.088;2023-08-06T11:32:23;0.70;;;0.70;;
11173;SDS011;5643;50.856;12.088;2023-08-06T11:35:10;0.50;;;0.50;;
11173;SDS011;5643;50.856;12.088;2023-08-06T11:37:46;0.68;;;0.68;;
11173;SDS011;5643;50.856;12.088;2023-08-06T11:40:28;0.52;;;0.50;;
11173;SDS011;5643;50.856;12.088;2023-08-06T11:43:05;0.68;;;0.68;;
11173;SDS011;5643;50.856;12.088;2023-08-06T11:45:35;0.52;;;0.52;;
11173;SDS011;5643;50.856;12.088;2023-08-06T11:48:08;1.17;;;0.75;;
11173;SDS011;5643;50.856;12.088;2023-08-06T11:50:45;1.05;;;0.95;;
11173;SDS011;5643;50.856;12.088;2023-08-06T11:53:18;0.60;;;0.60;;
11173;SDS011;5643;50.856;12.088;2023-08-06T11:55:54;0.50;;;0.50;;
11173;SDS011;5643;50.856;12.088;2023-08-06T11:58:24;0.70;;;0.70;;
11173;SDS011;5643;50.856;12.088;2023-08-06T12:01:00;0.70;;;0.70;;
11173;SDS011;5643;50.856;12.088;2023-08-06T12:03:43;0.65;;;0.65;;
11173;SDS011;5643;50.856;12.088;2023-08-06T12:06:15;0.80;;;0.80;;
11173;SDS011;5643;50.856;12.088;2023-08-06T12:08:49;0.80;;;0.80;;
11173;SDS011;5643;50.856;12.088;2023-08-06T12:11:25;0.70;;;0.70;;
11173;SDS011;5643;50.856;12.088;2023-08-06T12:13:54;0.73;;;0.68;;
11173;SDS011;5643;50.856;12.088;2023-08-06T12:16:30;1.35;;;0.50;;
11173;SDS011;5643;50.856;12.088;2023-08-06T12:19:00;0.88;;;0.77;;
11173;SDS011;5643;50.856;12.088;2023-08-06T12:21:35;0.88;;;0.55;;
11173;SDS011;5643;50.856;12.088;2023-08-06T12:24:09;0.82;;;0.60;;
11173;SDS011;5643;50.856;12.088;2023-08-06T12:26:41;1.23;;;0.50;;
11173;SDS011;5643;50.856;12.088;2023-08-06T12:29:17;0.52;;;0.52;;
11173;SDS011;5643;50.856;12.088;2023-08-06T12:31:57;0.50;;;0.50;;
11173;SDS011;5643;50.856;12.088;2023-08-06T12:34:27;1.20;;;0.60;;
11173;SDS011;5643;50.856;12.088;2023-08-06T12:37:06;0.70;;;0.60;;
11173;SDS011;5643;50.856;12.088;2023-08-06T12:39:40;0.87;;;0.70;;
11173;SDS011;5643;50.856;12.088;2023-08-06T12:42:09;0.50;;;0.50;;
11173;SDS011;5643;50.856;12.088;2023-08-06T12:44:43;1.40;;;0.87;;
11173;SDS011;5643;50.856;12.088;2023-08-06T12:47:18;0.73;;;0.73;;
11173;SDS011;5643;50.856;12.088;2023-08-06T12:49:55;0.60;;;0.60;;
11173;SDS011;5643;50.856;12.088;2023-08-06T12:52:31;0.40;;;0.40;;
11173;SDS011;5643;50.856;12.088;2023-08-06T12:55:06;0.70;;;0.60;;
11173;SDS011;5643;50.856;12.088;2023-08-06T12:57:38;0.77;;;0.60;;
11173;SDS011;5643;50.856;12.088;2023-08-06T13:00:08;1.27;;;0.60;;
11173;SDS011;5643;50.856;12.088;2023-08-06T13:02:38;0.52;;;0.52;;
11173;SDS011;5643;50.856;12.088;2023-08-06T13:05:12;0.50;;;0.50;;
11173;SDS011;5643;50.856;12.088;2023-08-06T13:07:52;0.60;;;0.60;;
11173;SDS011;5643;50.856;12.088;2023-08-06T13:10:25;0.50;;;0.50;;
11173;SDS011;5643;50.856;12.088;2023-08-06T13:13:01;0.50;;;0.50;;
11173;SDS011;5643;50.856;12.088;2023-08-06T13:15:30;0.40;;;0.40;;
11173;SDS011;5643;50.856;12.088;2023-08-06T13:18:09;0.93;;;0.60;;
11173;SDS011;5643;50.856;12.088;2023-08-06T13:20:39;0.50;;;0.50;;
11173;SDS011;5643;50.856;12.088;2023-08-06T13:23:13;0.50;;;0.50;;
11173;SDS011;5643;50.856;12.088;2023-08-06T13:25:52;0.50;;;0.40;;
11173;SDS011;5643;50.856;12.088;2023-08-06T13:28:25;0.50;;;0.50;;
11173;SDS011;5643;50.856;12.088;2023-08-06T13:30:59;0.55;;;0.55;;
11173;SDS011;5643;50.856;12.088;2023-08-06T13:33:30;0.60;;;0.60;;
11173;SDS011;5643;50.856;12.088;2023-08-06T13:36:11;0.60;;;0.60;;
11173;SDS011;5643;50.856;12.088;2023-08-06T13:38:43;0.70;;;0.70;;
11173;SDS011;5643;50.856;12.088;2023-08-06T13:41:23;0.85;;;0.60;;
11173;SDS011;5643;50.856;12.088;2023-08-06T13:43:56;0.60;;;0.60;;
11173;SDS011;5643;50.856;12.088;2023-08-06T13:46:33;0.75;;;0.75;;
11173;SDS011;5643;50.856;12.088;2023-08-06T13:49:11;0.70;;;0.70;;
11173;SDS011;5643;50.856;12.088;2023-08-06T13:51:55;0.73;;;0.73;;
11173;SDS011;5643;50.856;12.088;2023-08-06T13:54:37;0.80;;;0.80;;
11173;SDS011;5643;50.856;12.088;2023-08-06T13:57:19;0.77;;;0.77;;
11173;SDS011;5643;50.856;12.088;2023-08-06T13:59:50;0.70;;;0.70;;
11173;SDS011;5643;50.856;12.088;2023-08-06T14:02:26;0.90;;;0.90;;
11173;SDS011;5643;50.856;12.088;2023-08-06T14:05:08;0.75;;;0.75;;
11173;SDS011;5643;50.856;12.088;2023-08-06T14:07:46;0.70;;;0.70;;
11173;SDS011;5643;50.856;12.088;2023-08-06T14:10:28;0.80;;;0.80;;
11173;SDS011;5643;50.856;12.088;2023-08-06T14:13:00;1.40;;;0.93;;
11173;SDS011;5643;50.856;12.088;2023-08-06T14:15:34;0.68;;;0.68;;
11173;SDS011;5643;50.856;12.088;2023-08-06T14:18:12;0.60;;;0.60;;
11173;SDS011;5643;50.856;12.088;2023-08-06T14:20:46;0.50;;;0.50;;
11173;SDS011;5643;50.856;12.088;2023-08-06T14:23:16;0.93;;;0.70;;
11173;SDS011;5643;50.856;12.088;2023-08-06T14:25:47;0.57;;;0.50;;
11173;SDS011;5643;50.856;12.088;2023-08-06T14:28:23;0.80;;;0.80;;
11173;SDS011;5643;50.856;12.088;2023-08-06T14:31:06;0.70;;;0.70;;
11173;SDS011;5643;50.856;12.088;2023-08-06T14:33:38;0.70;;;0.68;;
11173;SDS011;5643;50.856;12.088;2023-08-06T14:36:17;1.08;;;1.00;;
11173;SDS011;5643;50.856;12.088;2023-08-06T14:38:52;0.95;;;0.77;;
11173;SDS011;5643;50.856;12.088;2023-08-06T14:41:33;0.60;;;0.60;;
11173;SDS011;5643;50.856;12.088;2023-08-06T14:44:08;0.75;;;0.73;;
11173;SDS011;5643;50.856;12.088;2023-08-06T14:46:41;0.98;;;0.88;;
11173;SDS011;5643;50.856;12.088;2023-08-06T14:49:14;0.85;;;0.85;;
11173;SDS011;5643;50.856;12.088;2023-08-06T14:51:50;0.70;;;0.70;;
11173;SDS011;5643;50.856;12.088;2023-08-06T14:54:31;0.88;;;0.80;;
11173;SDS011;5643;50.856;12.088;2023-08-06T14:57:01;0.70;;;0.70;;
11173;SDS011;5643;50.856;12.088;2023-08-06T14:59:39;0.70;;;0.70;;
11173;SDS011;5643;50.856;12.088;2023-08-06T15:02:14;0.90;;;0.60;;
11173;SDS011;5643;50.856;12.088;2023-08-06T15:04:53;0.52;;;0.50;;
11173;SDS011;5643;50.856;12.088;2023-08-06T15:07:24;0.50;;;0.38;;
11173;SDS011;5643;50.856;12.088;2023-08-06T15:10:01;0.50;;;0.50;;
11173;SDS011;5643;50.856;12.088;2023-08-06T15:12:35;0.50;;;0.50;;
11173;SDS011;5643;50.856;12.088;2023-08-06T15:15:12;0.30;;;0.30;;
11173;SDS011;5643;50.856;12.088;2023-08-06T15:17:48;0.55;;;0.40;;
11173;SDS011;5643;50.856;12.088;2023-08-06T15:20:22;0.30;;;0.30;;
11173;SDS011;5643;50.856;12.088;2023-08-06T15:22:58;0.45;;;0.45;;
11173;SDS011;5643;50.856;12.088;2023-08-06T15:25:27;0.40;;;0.40;;